HKLU 230700Z 18006KT 9999 SCT024 29/20 Q1016
From batch tds/metars/production/2022/9/23/h07_m55_metars.cache.csv.gz
Observed at (9 days ago)
Identifier HKLU
talk